createdAt,value
2023-02-05T00:02:00.286Z,7.27
2023-02-05T00:04:45.664Z,7.20
2023-02-05T00:07:31.092Z,7.43
2023-02-05T00:10:17.594Z,7.17
2023-02-05T00:13:03.192Z,8.00
2023-02-05T00:15:49.553Z,7.93
2023-02-05T00:18:34.913Z,8.23
2023-02-05T00:21:21.865Z,7.40
2023-02-05T00:24:07.884Z,9.10
2023-02-05T00:26:53.460Z,8.27
2023-02-05T00:29:38.802Z,9.17
2023-02-05T00:32:24.359Z,8.30
2023-02-05T00:35:09.982Z,8.60
2023-02-05T00:37:56.418Z,9.40
2023-02-05T00:40:41.713Z,8.37
2023-02-05T00:43:27.217Z,8.53
2023-02-05T00:46:13.922Z,8.10
2023-02-05T00:48:59.235Z,7.90
2023-02-05T00:51:44.908Z,8.07
2023-02-05T00:54:30.139Z,7.17
2023-02-05T00:57:15.748Z,8.00
2023-02-05T01:00:01.428Z,7.47
2023-02-05T01:02:46.703Z,8.17
2023-02-05T01:05:34.665Z,7.77
2023-02-05T01:08:20.459Z,8.10
2023-02-05T01:11:12.843Z,8.03
2023-02-05T01:13:58.239Z,7.30
2023-02-05T01:16:43.686Z,7.83
2023-02-05T01:19:29.104Z,7.73
2023-02-05T01:22:16.032Z,7.07
2023-02-05T01:25:01.694Z,7.03
2023-02-05T01:27:47.192Z,7.60
2023-02-05T01:30:33.578Z,7.57
2023-02-05T01:33:19.367Z,7.77
2023-02-05T01:36:04.960Z,7.77
2023-02-05T01:38:50.617Z,7.50
2023-02-05T01:41:36.181Z,7.47
2023-02-05T01:44:24.831Z,7.87
2023-02-05T01:47:10.724Z,8.00
2023-02-05T01:49:56.823Z,7.90
2023-02-05T01:52:42.439Z,8.47
2023-02-05T01:55:29.134Z,8.30
2023-02-05T01:58:15.135Z,7.67
2023-02-05T02:01:00.934Z,7.37
2023-02-05T02:03:47.838Z,6.93
2023-02-05T02:06:35.118Z,8.17
2023-02-05T02:09:20.950Z,7.97
2023-02-05T02:12:08.630Z,7.67
2023-02-05T02:14:59.937Z,8.40
2023-02-05T02:17:48.683Z,8.47
2023-02-05T02:20:41.134Z,8.13
2023-02-05T02:23:45.197Z,8.10
2023-02-05T02:26:53.637Z,7.33
2023-02-05T02:30:01.192Z,6.70
2023-02-05T02:32:54.160Z,7.13
2023-02-05T02:35:54.083Z,7.53
2023-02-05T02:38:51.125Z,7.30
2023-02-05T02:41:50.520Z,6.93
2023-02-05T02:44:53.487Z,7.20
2023-02-05T02:47:47.129Z,7.07
2023-02-05T02:50:37.580Z,7.03
2023-02-05T02:53:36.555Z,7.53
2023-02-05T02:56:24.525Z,8.30
2023-02-05T02:59:14.328Z,8.17
2023-02-05T03:02:04.637Z,7.23
2023-02-05T03:04:58.544Z,7.80
2023-02-05T03:07:56.387Z,7.50
2023-02-05T03:10:53.215Z,7.50
2023-02-05T03:13:39.015Z,7.07
2023-02-05T03:16:26.415Z,7.83
2023-02-05T03:19:11.760Z,7.27
2023-02-05T03:22:02.149Z,7.40
2023-02-05T03:24:47.622Z,7.57
2023-02-05T03:27:33.937Z,6.93
2023-02-05T03:30:19.924Z,7.53
2023-02-05T03:33:16.216Z,6.93
2023-02-05T03:36:17.059Z,6.97
2023-02-05T03:39:17.363Z,7.30
2023-02-05T03:42:28.561Z,7.07
2023-02-05T03:45:39.845Z,7.43
2023-02-05T03:48:37.130Z,7.77
2023-02-05T03:51:46.748Z,7.87
2023-02-05T03:54:45.802Z,7.57
2023-02-05T03:57:44.768Z,8.47
2023-02-05T04:00:31.640Z,7.93
2023-02-05T04:03:17.204Z,7.90
2023-02-05T04:06:02.951Z,7.37
2023-02-05T04:08:48.229Z,7.43
2023-02-05T04:11:33.714Z,7.40
2023-02-05T04:14:19.018Z,7.67
2023-02-05T04:17:04.530Z,6.33
2023-02-05T04:19:50.226Z,7.47
2023-02-05T04:22:35.554Z,7.50
2023-02-05T04:25:20.953Z,7.33
2023-02-05T04:28:07.050Z,8.00
2023-02-05T04:30:52.414Z,7.17
2023-02-05T04:33:41.389Z,7.27
2023-02-05T04:36:26.962Z,8.23
2023-02-05T04:39:12.576Z,7.13
2023-02-05T04:41:57.832Z,7.20
2023-02-05T04:44:43.468Z,6.70
2023-02-05T04:47:30.517Z,7.67
2023-02-05T04:50:16.473Z,7.27
2023-02-05T04:53:02.318Z,7.43
2023-02-05T04:55:47.889Z,8.17
2023-02-05T04:58:33.492Z,7.63
2023-02-05T05:01:21.931Z,7.80
2023-02-05T05:04:07.382Z,7.63
2023-02-05T05:06:53.139Z,7.83
2023-02-05T05:09:38.702Z,7.73
2023-02-05T05:12:24.253Z,8.80
2023-02-05T05:15:10.080Z,8.77
2023-02-05T05:17:55.396Z,8.20
2023-02-05T05:20:42.655Z,8.40
2023-02-05T05:23:28.129Z,7.93
2023-02-05T05:26:13.681Z,8.90
2023-02-05T05:28:59.012Z,7.97
2023-02-05T05:31:44.466Z,8.00
2023-02-05T05:34:30.153Z,8.20
2023-02-05T05:37:15.482Z,7.23
2023-02-05T05:40:19.608Z,8.10
2023-02-05T05:43:23.382Z,7.87
2023-02-05T05:46:08.850Z,7.77
2023-02-05T05:48:59.749Z,7.57
2023-02-05T05:51:45.191Z,7.97
2023-02-05T05:54:30.862Z,8.00
2023-02-05T05:57:16.282Z,8.27
2023-02-05T06:00:02.936Z,7.17
2023-02-05T06:02:48.293Z,8.33
2023-02-05T06:05:34.332Z,7.90
2023-02-05T06:08:19.863Z,7.97
2023-02-05T06:11:05.311Z,8.40
2023-02-05T06:13:50.961Z,8.17
2023-02-05T06:16:36.479Z,8.33
2023-02-05T06:19:23.064Z,8.03
2023-02-05T06:22:08.638Z,6.57
2023-02-05T06:24:54.256Z,7.33
2023-02-05T06:27:39.553Z,7.17
2023-02-05T06:30:25.497Z,7.70
2023-02-05T06:33:12.817Z,7.90
2023-02-05T06:35:58.185Z,6.70
2023-02-05T06:38:43.654Z,7.30
2023-02-05T06:41:29.370Z,8.37
2023-02-05T06:44:14.948Z,7.67
2023-02-05T06:47:01.193Z,8.20
2023-02-05T06:49:46.712Z,8.43
2023-02-05T06:52:32.215Z,6.60
2023-02-05T06:55:18.552Z,7.37
2023-02-05T06:58:04.062Z,8.20
2023-02-05T07:00:49.305Z,7.40
2023-02-05T07:03:34.856Z,7.57
2023-02-05T07:06:20.403Z,7.47
2023-02-05T07:09:06.184Z,7.33
2023-02-05T07:11:52.094Z,6.80
2023-02-05T07:14:39.068Z,6.70
2023-02-05T07:17:24.586Z,7.03
2023-02-05T07:20:10.647Z,6.97
2023-02-05T07:22:56.290Z,7.00
2023-02-05T07:25:41.879Z,7.20
2023-02-05T07:28:27.411Z,7.40
2023-02-05T07:31:15.903Z,7.40
2023-02-05T07:34:01.892Z,7.50
2023-02-05T07:36:50.792Z,8.93
2023-02-05T07:39:36.018Z,7.97
2023-02-05T07:42:21.644Z,8.53
2023-02-05T07:45:07.656Z,8.20
2023-02-05T07:47:53.965Z,8.13
2023-02-05T07:50:44.175Z,7.33
2023-02-05T07:53:29.792Z,6.73
2023-02-05T07:56:16.003Z,8.33
2023-02-05T07:59:01.940Z,7.93
2023-02-05T08:01:47.433Z,7.60
2023-02-05T08:04:33.365Z,6.80
2023-02-05T08:07:18.808Z,6.90
2023-02-05T08:10:05.173Z,6.90
2023-02-05T08:12:50.458Z,7.60
2023-02-05T08:15:39.202Z,7.83
2023-02-05T08:18:25.287Z,8.17
2023-02-05T08:21:10.893Z,8.10
2023-02-05T08:23:58.520Z,7.43
2023-02-05T08:26:44.246Z,7.80
2023-02-05T08:29:29.487Z,6.40
2023-02-05T08:32:15.102Z,7.60
2023-02-05T08:35:00.710Z,7.47
2023-02-05T08:37:46.233Z,8.00
2023-02-05T08:40:31.545Z,8.80
2023-02-05T08:43:17.455Z,7.87
2023-02-05T08:46:04.158Z,8.80
2023-02-05T08:48:49.852Z,7.77
2023-02-05T08:51:35.814Z,8.23
2023-02-05T08:54:21.146Z,8.20
2023-02-05T08:57:06.665Z,8.20
2023-02-05T08:59:52.245Z,8.47
2023-02-05T09:02:37.524Z,7.83
2023-02-05T09:05:23.121Z,9.33
2023-02-05T09:08:08.645Z,8.50
2023-02-05T09:10:54.652Z,9.17
2023-02-05T09:13:40.709Z,8.47
2023-02-05T09:16:27.087Z,8.80
2023-02-05T09:19:12.621Z,8.43
2023-02-05T09:21:58.524Z,8.33
2023-02-05T09:24:43.891Z,8.13
2023-02-05T09:27:30.486Z,8.30
2023-02-05T09:30:15.902Z,8.50
2023-02-05T09:33:01.294Z,8.80
2023-02-05T09:35:46.957Z,8.90
2023-02-05T09:38:32.116Z,8.30
2023-02-05T09:41:42.950Z,8.20
2023-02-05T09:44:49.716Z,8.00
2023-02-05T09:47:42.687Z,8.17
2023-02-05T09:50:30.331Z,7.80
2023-02-05T09:53:21.553Z,7.20
2023-02-05T09:56:09.222Z,8.03
2023-02-05T09:58:56.306Z,7.20
2023-02-05T10:01:47.967Z,6.77
2023-02-05T10:04:33.648Z,7.10
2023-02-05T10:07:25.833Z,7.27
2023-02-05T10:10:26.182Z,6.73
2023-02-05T10:13:29.018Z,6.80
2023-02-05T10:16:30.354Z,6.30
2023-02-05T10:19:18.723Z,8.40
2023-02-05T10:22:17.184Z,7.47
2023-02-05T10:25:21.130Z,7.20
2023-02-05T10:28:15.454Z,6.67
2023-02-05T10:31:38.110Z,7.75
2023-02-05T10:34:38.278Z,8.23
2023-02-05T10:37:50.951Z,8.87
2023-02-05T10:40:42.153Z,8.60
2023-02-05T10:43:43.621Z,8.93
2023-02-05T10:46:33.591Z,9.23
2023-02-05T10:49:25.341Z,8.43
2023-02-05T10:52:15.802Z,9.23
2023-02-05T10:55:01.090Z,8.90
2023-02-05T10:57:46.617Z,8.00
2023-02-05T11:00:32.091Z,8.03
2023-02-05T11:03:19.516Z,7.33
2023-02-05T11:06:10.127Z,7.43
2023-02-05T11:08:55.938Z,6.97
2023-02-05T11:11:41.606Z,6.90
2023-02-05T11:14:32.207Z,7.17
2023-02-05T11:17:17.763Z,7.10
2023-02-05T11:20:17.866Z,7.20
2023-02-05T11:23:21.111Z,6.80
2023-02-05T11:26:20.657Z,5.67
2023-02-05T11:29:24.361Z,6.10
2023-02-05T11:32:39.148Z,5.57
2023-02-05T11:35:32.050Z,5.18
2023-02-05T11:38:33.740Z,6.67
2023-02-05T11:41:48.667Z,6.00
2023-02-05T11:44:37.323Z,5.88
2023-02-05T11:47:34.448Z,5.40
2023-02-05T11:50:25.174Z,5.80
2023-02-05T11:53:16.628Z,6.30
2023-02-05T11:56:07.794Z,6.10
2023-02-05T11:59:05.279Z,5.70
2023-02-05T12:01:50.783Z,5.83
2023-02-05T12:04:47.374Z,4.97
2023-02-05T12:07:56.950Z,4.93
2023-02-05T12:10:57.871Z,5.73
2023-02-05T12:13:54.838Z,5.53
2023-02-05T12:17:01.615Z,4.30
2023-02-05T12:20:11.973Z,5.13
2023-02-05T12:23:05.249Z,5.27
2023-02-05T12:25:59.659Z,5.70
2023-02-05T12:28:45.243Z,5.55
2023-02-05T12:31:42.545Z,6.00
2023-02-05T12:34:28.024Z,5.27
2023-02-05T12:37:13.650Z,6.20
2023-02-05T12:40:05.107Z,6.03
2023-02-05T12:43:09.180Z,6.83
2023-02-05T12:46:06.619Z,6.33
2023-02-05T12:49:29.815Z,5.57
2023-02-05T12:52:35.718Z,5.83
2023-02-05T12:55:49.780Z,5.80
2023-02-05T12:58:44.291Z,5.47
2023-02-05T13:01:54.852Z,5.70
2023-02-05T13:04:46.896Z,4.90
2023-02-05T13:08:03.752Z,4.70
2023-02-05T13:11:08.187Z,3.40
2023-02-05T13:14:13.874Z,2.53
2023-02-05T13:17:09.776Z,2.70
2023-02-05T13:20:01.647Z,2.60
2023-02-05T13:23:13.399Z,2.70
2023-02-05T13:26:08.617Z,2.63
2023-02-05T13:29:03.732Z,2.73
2023-02-05T13:32:10.638Z,3.03
2023-02-05T13:35:00.662Z,2.57
2023-02-05T13:38:10.436Z,2.83
2023-02-05T13:41:18.525Z,3.07
2023-02-05T13:44:34.947Z,2.70
2023-02-05T13:47:23.151Z,2.90
2023-02-05T13:50:30.653Z,3.53
2023-02-05T13:53:19.108Z,3.17
2023-02-05T13:56:19.507Z,3.20
2023-02-05T13:59:15.109Z,3.23
2023-02-05T14:02:01.849Z,3.00
2023-02-05T14:04:54.015Z,3.60
2023-02-05T14:07:50.893Z,3.67
2023-02-05T14:10:43.338Z,3.50
2023-02-05T14:13:34.330Z,4.10
2023-02-05T14:16:25.815Z,3.97
2023-02-05T14:19:22.047Z,3.87
2023-02-05T14:22:31.832Z,3.80
2023-02-05T14:25:35.962Z,4.50
2023-02-05T14:28:30.970Z,3.67
2023-02-05T14:31:45.691Z,4.35
2023-02-05T14:34:34.110Z,4.53
2023-02-05T14:37:37.582Z,4.70
2023-02-05T14:40:26.047Z,3.70
2023-02-05T14:43:34.716Z,4.00
2023-02-05T14:46:46.101Z,5.33
2023-02-05T14:49:34.713Z,4.77
2023-02-05T14:52:30.176Z,6.87
2023-02-05T14:55:22.249Z,5.67
2023-02-05T14:58:27.048Z,4.73
2023-02-05T15:01:41.914Z,4.32
2023-02-05T15:04:50.399Z,4.43
2023-02-05T15:07:37.100Z,4.20
2023-02-05T15:10:27.178Z,4.00
2023-02-05T15:13:18.970Z,4.60
2023-02-05T15:16:19.696Z,4.07
2023-02-05T15:19:07.350Z,4.67
2023-02-05T15:21:53.369Z,4.77
2023-02-05T15:24:40.055Z,4.23
2023-02-05T15:27:42.953Z,4.47
2023-02-05T15:30:33.588Z,5.00
2023-02-05T15:33:49.918Z,4.83
2023-02-05T15:36:45.609Z,4.72
2023-02-05T15:39:52.905Z,4.07
2023-02-05T15:42:41.563Z,4.50
2023-02-05T15:45:37.581Z,4.30
2023-02-05T15:48:29.427Z,4.40
2023-02-05T15:51:23.470Z,4.37
2023-02-05T15:54:09.109Z,4.45
2023-02-05T15:56:55.291Z,3.77
2023-02-05T15:59:40.930Z,3.63
2023-02-05T16:02:31.185Z,4.03
2023-02-05T16:05:19.941Z,3.80
2023-02-05T16:08:17.706Z,3.20
2023-02-05T16:11:05.444Z,3.83
2023-02-05T16:14:03.174Z,4.20
2023-02-05T16:16:51.557Z,4.07
2023-02-05T16:20:13.486Z,4.13
2023-02-05T16:23:02.529Z,4.27
2023-02-05T16:25:56.152Z,4.33
2023-02-05T16:28:57.942Z,4.43
2023-02-05T16:31:43.516Z,4.07
2023-02-05T16:34:29.800Z,4.33
2023-02-05T16:37:18.341Z,4.40
2023-02-05T16:40:06.820Z,4.93
2023-02-05T16:42:52.242Z,4.30
2023-02-05T16:45:38.560Z,4.83
2023-02-05T16:48:27.360Z,4.13
2023-02-05T16:51:35.817Z,4.27
2023-02-05T16:54:25.693Z,4.67
2023-02-05T16:57:14.740Z,4.50
2023-02-05T17:00:17.770Z,4.20
2023-02-05T17:03:16.316Z,4.40
2023-02-05T17:06:03.801Z,4.90
2023-02-05T17:08:55.353Z,5.00
2023-02-05T17:11:42.880Z,5.83
2023-02-05T17:14:32.989Z,4.33
2023-02-05T17:17:19.236Z,4.53
2023-02-05T17:20:21.611Z,5.10
2023-02-05T17:23:08.991Z,4.53
2023-02-05T17:25:55.797Z,5.20
2023-02-05T17:28:44.467Z,4.90
2023-02-05T17:31:32.864Z,4.87
2023-02-05T17:34:18.176Z,4.97
2023-02-05T17:37:05.200Z,4.77
2023-02-05T17:39:51.556Z,4.90
2023-02-05T17:42:37.107Z,5.23
2023-02-05T17:45:25.005Z,5.60
2023-02-05T17:48:11.528Z,5.47
2023-02-05T17:50:59.282Z,4.70
2023-02-05T17:53:44.693Z,4.93
2023-02-05T17:56:29.977Z,4.97
2023-02-05T17:59:20.415Z,5.27
2023-02-05T18:02:07.140Z,4.80
2023-02-05T18:04:53.050Z,5.00
2023-02-05T18:07:45.990Z,4.70
2023-02-05T18:10:35.131Z,5.27
2023-02-05T18:13:22.227Z,4.93
2023-02-05T18:16:10.736Z,5.70
2023-02-05T18:18:57.447Z,6.10
2023-02-05T18:21:42.789Z,5.70
2023-02-05T18:24:28.924Z,6.50
2023-02-05T18:27:14.189Z,6.17
2023-02-05T18:29:59.719Z,7.03
2023-02-05T18:32:45.073Z,6.40
2023-02-05T18:35:30.773Z,5.63
2023-02-05T18:38:16.241Z,6.07
2023-02-05T18:41:13.850Z,6.60
2023-02-05T18:43:59.875Z,8.47
2023-02-05T18:46:45.290Z,8.50
2023-02-05T18:49:30.874Z,7.23
2023-02-05T18:52:16.025Z,6.30
2023-02-05T18:55:01.575Z,5.87
2023-02-05T18:57:47.117Z,6.70
2023-02-05T19:00:32.762Z,7.37
2023-02-05T19:03:18.448Z,6.87
2023-02-05T19:06:05.650Z,6.50
2023-02-05T19:08:51.105Z,6.60
2023-02-05T19:11:40.946Z,6.83
2023-02-05T19:14:26.680Z,7.40
2023-02-05T19:17:12.414Z,6.23
2023-02-05T19:19:58.622Z,6.43
2023-02-05T19:22:44.078Z,6.50
2023-02-05T19:25:30.005Z,6.33
2023-02-05T19:28:15.230Z,6.57
2023-02-05T19:31:09.660Z,6.37
2023-02-05T19:33:56.244Z,6.32
2023-02-05T19:36:42.432Z,6.77
2023-02-05T19:39:28.036Z,7.13
2023-02-05T19:42:13.616Z,6.17
2023-02-05T19:44:59.252Z,6.83
2023-02-05T19:47:44.754Z,6.83
2023-02-05T19:50:29.985Z,7.40
2023-02-05T19:53:16.827Z,7.87
2023-02-05T19:56:10.618Z,8.10
2023-02-05T19:58:56.378Z,7.82
2023-02-05T20:01:44.632Z,8.17
2023-02-05T20:04:30.501Z,7.27
2023-02-05T20:07:15.959Z,7.70
2023-02-05T20:10:01.570Z,7.37
2023-02-05T20:12:50.430Z,7.77
2023-02-05T20:15:36.607Z,7.73
2023-02-05T20:18:22.811Z,7.47
2023-02-05T20:21:11.488Z,6.70
2023-02-05T20:23:56.830Z,7.93
2023-02-05T20:26:43.185Z,8.07
2023-02-05T20:29:47.152Z,8.37
2023-02-05T20:32:32.562Z,9.10
2023-02-05T20:35:17.934Z,9.93
2023-02-05T20:38:03.361Z,9.37
2023-02-05T20:40:48.828Z,9.83
2023-02-05T20:43:34.320Z,9.47
2023-02-05T20:46:20.418Z,9.13
2023-02-05T20:49:05.631Z,9.20
2023-02-05T20:51:52.976Z,9.43
2023-02-05T20:54:38.430Z,8.13
2023-02-05T20:57:23.736Z,9.10
2023-02-05T21:00:10.118Z,8.40
2023-02-05T21:02:55.539Z,8.80
2023-02-05T21:05:41.200Z,8.97
2023-02-05T21:08:26.860Z,8.60
2023-02-05T21:11:16.483Z,8.73
2023-02-05T21:14:03.670Z,8.03
2023-02-05T21:16:49.042Z,8.03
2023-02-05T21:19:34.435Z,9.40
2023-02-05T21:22:19.817Z,9.77
2023-02-05T21:25:05.784Z,9.27
2023-02-05T21:27:51.250Z,9.27
2023-02-05T21:30:37.402Z,9.60
2023-02-05T21:33:22.991Z,9.47
2023-02-05T21:36:10.828Z,9.60
2023-02-05T21:38:56.339Z,10.73
2023-02-05T21:41:42.629Z,10.97
2023-02-05T21:44:27.937Z,10.30
2023-02-05T21:47:13.518Z,9.00
2023-02-05T21:49:59.012Z,9.10
2023-02-05T21:52:44.430Z,8.50
2023-02-05T21:55:29.947Z,9.20
2023-02-05T21:58:15.500Z,10.07
2023-02-05T22:01:20.609Z,9.40
2023-02-05T22:04:13.512Z,9.37
2023-02-05T22:06:58.819Z,9.53
2023-02-05T22:09:44.320Z,9.63
2023-02-05T22:12:29.803Z,8.37
2023-02-05T22:15:15.511Z,7.50
2023-02-05T22:18:00.821Z,7.80
2023-02-05T22:20:46.364Z,6.23
2023-02-05T22:23:31.878Z,4.50
2023-02-05T22:26:18.768Z,5.13
2023-02-05T22:29:06.946Z,3.60
2023-02-05T22:31:54.320Z,4.53
2023-02-05T22:34:42.592Z,6.63
2023-02-05T22:37:29.551Z,8.60
2023-02-05T22:40:15.012Z,9.07
2023-02-05T22:43:00.334Z,6.23
2023-02-05T22:45:45.959Z,7.83
2023-02-05T22:48:33.854Z,5.07
2023-02-05T22:51:21.891Z,6.60
2023-02-05T22:54:11.983Z,4.37
2023-02-05T22:56:57.641Z,3.63
2023-02-05T22:59:43.332Z,3.40
2023-02-05T23:02:29.328Z,3.00
2023-02-05T23:05:14.748Z,3.87
2023-02-05T23:08:00.166Z,3.30
2023-02-05T23:10:45.978Z,3.70
2023-02-05T23:13:31.837Z,3.30
2023-02-05T23:16:21.935Z,3.73
2023-02-05T23:19:11.984Z,4.20
2023-02-05T23:21:57.252Z,3.80
2023-02-05T23:24:42.569Z,3.60
2023-02-05T23:27:29.399Z,3.40
2023-02-05T23:30:15.339Z,3.53
2023-02-05T23:33:00.543Z,4.07
2023-02-05T23:35:46.012Z,3.80
2023-02-05T23:38:31.740Z,4.13
2023-02-05T23:41:36.460Z,3.77
2023-02-05T23:47:07.737Z,3.87
2023-02-05T23:49:52.988Z,4.10
2023-02-05T23:52:38.533Z,4.33
2023-02-05T23:55:24.000Z,4.33
2023-02-05T23:58:09.973Z,3.90
